Time;durP1;ratioP1;P1;durP2;ratioP2;P2;SDS_P1;SDS_P2;PMS_P1;PMS_P2;Temp;Humidity;BMP_temperature;BMP_pressure;BME280_temperature;BME280_humidity;BME280_pressure;Samples;Min_cycle;Max_cycle;Signal;HPM_P1;HPM_P2
2022/06/17 00:01:30;;;;;;;1.57;1.13;;;22.40;99.90;;;;;;4874476;29;20226;-93
2022/06/17 00:04:04;;;;;;;1.13;0.83;;;22.30;99.90;;;;;;4875582;29;20230;-92
2022/06/17 00:06:41;;;;;;;1.43;0.93;;;22.30;99.90;;;;;;4877599;29;20218;-93
2022/06/17 00:09:19;;;;;;;0.90;0.80;;;22.00;99.90;;;;;;4864741;29;20210;-92
2022/06/17 00:11:55;;;;;;;1.43;0.90;;;22.20;99.90;;;;;;4876019;29;20331;-93
2022/06/17 00:14:31;;;;;;;0.80;0.80;;;22.30;99.90;;;;;;4874477;29;20275;-93
2022/06/17 00:17:03;;;;;;;1.50;0.90;;;22.50;99.90;;;;;;4868212;29;20660;-92
2022/06/17 00:19:35;;;;;;;1.47;0.80;;;22.50;99.90;;;;;;4868194;29;20219;-93
2022/06/17 00:22:07;;;;;;;2.17;0.77;;;22.20;99.90;;;;;;4865292;29;20263;-93
2022/06/17 00:24:40;;;;;;;1.37;1.10;;;22.30;99.90;;;;;;4866771;29;20276;-92
2022/06/17 00:27:15;;;;;;;0.93;0.90;;;22.20;99.90;;;;;;4867880;29;20211;-93
2022/06/17 00:29:46;;;;;;;1.93;1.10;;;22.50;99.90;;;;;;4878210;29;20245;-92
2022/06/17 00:32:17;;;;;;;1.10;0.90;;;22.60;99.90;;;;;;4880086;29;20222;-93
2022/06/17 00:34:48;;;;;;;1.60;0.90;;;22.40;99.90;;;;;;4873291;29;20211;-92
2022/06/17 00:37:26;;;;;;;1.10;0.90;;;22.10;99.90;;;;;;4900188;29;20337;-92
2022/06/17 00:39:58;;;;;;;1.03;0.80;;;22.10;99.90;;;;;;4866892;29;20218;-93
2022/06/17 00:42:31;;;;;;;3.70;0.83;;;22.20;99.90;;;;;;4865234;29;20211;-92
2022/06/17 00:45:09;;;;;;;1.33;0.90;;;22.30;99.90;;;;;;4869775;29;20273;-92
2022/06/17 00:47:46;;;;;;;3.30;1.17;;;22.40;99.90;;;;;;4865322;29;20647;-92
2022/06/17 00:50:26;;;;;;;1.97;1.10;;;22.80;99.90;;;;;;4865700;29;20286;-92
2022/06/17 00:53:07;;;;;;;1.63;0.97;;;22.80;99.90;;;;;;4864878;29;20212;-92
2022/06/17 00:55:42;;;;;;;1.10;0.73;;;23.10;99.90;;;;;;4847657;29;20223;-92
2022/06/17 00:58:19;;;;;;;2.47;0.90;;;23.50;99.90;;;;;;4845573;29;20219;-92
2022/06/17 01:00:54;;;;;;;2.03;0.80;;;23.80;99.90;;;;;;4851270;29;20310;-92
2022/06/17 01:03:29;;;;;;;3.10;1.10;;;24.30;99.90;;;;;;4859787;29;20271;-92
2022/06/17 01:06:06;;;;;;;1.33;1.10;;;24.30;99.90;;;;;;4848911;29;20226;-92
2022/06/17 01:11:41;;;;;;;2.10;0.90;;;25.00;99.90;;;;;;4845074;29;20290;-92
2022/06/17 01:14:18;;;;;;;1.50;0.97;;;24.40;99.90;;;;;;4864894;29;20306;-92
2022/06/17 01:16:51;;;;;;;1.73;0.90;;;24.80;99.90;;;;;;4860908;29;20251;-92
2022/06/17 01:19:32;;;;;;;1.93;0.90;;;24.70;99.90;;;;;;4848363;29;20236;-92
2022/06/17 01:22:16;;;;;;;1.20;0.80;;;24.80;99.90;;;;;;4845733;29;20311;-92
2022/06/17 01:24:52;;;;;;;1.97;0.97;;;25.10;99.90;;;;;;4862017;29;20302;-93
2022/06/17 01:27:29;;;;;;;1.43;1.00;;;25.40;99.90;;;;;;4864652;29;20289;-92
2022/06/17 01:30:00;;;;;;;1.13;1.00;;;26.00;99.90;;;;;;4861498;29;20207;-91
2022/06/17 01:32:36;;;;;;;3.00;1.30;;;25.80;99.90;;;;;;4861656;29;20215;-93
2022/06/17 01:35:09;;;;;;;2.23;1.10;;;25.60;99.90;;;;;;4850207;29;20267;-93
2022/06/17 01:37:41;;;;;;;0.97;0.97;;;25.70;99.90;;;;;;4851240;29;20224;-93
2022/06/17 01:40:15;;;;;;;1.67;0.93;;;25.90;99.90;;;;;;4862602;29;20240;-93
2022/06/17 01:42:46;;;;;;;1.10;0.90;;;25.30;99.90;;;;;;4867434;29;20362;-93
2022/06/17 01:45:17;;;;;;;1.23;0.93;;;25.60;99.90;;;;;;4868123;29;20250;-93
2022/06/17 01:47:48;;;;;;;2.73;1.07;;;25.10;99.90;;;;;;4859272;29;20240;-93
2022/06/17 01:50:26;;;;;;;1.23;0.80;;;25.40;99.90;;;;;;4847499;29;20736;-93
2022/06/17 01:53:02;;;;;;;1.23;0.90;;;25.60;99.90;;;;;;4866289;29;20623;-93
2022/06/17 01:55:38;;;;;;;3.37;0.90;;;25.50;99.90;;;;;;4867020;29;20211;-92
2022/06/17 01:58:13;;;;;;;2.20;0.90;;;25.20;99.90;;;;;;4848557;29;20215;-92
2022/06/17 02:00:45;;;;;;;1.73;1.03;;;25.10;99.90;;;;;;4866234;29;20211;-92
2022/06/17 02:03:21;;;;;;;1.50;0.80;;;24.90;99.90;;;;;;4866609;29;20289;-91
2022/06/17 02:05:55;;;;;;;1.13;0.70;;;24.20;99.90;;;;;;4867061;29;20255;-91
2022/06/17 02:08:26;;;;;;;1.03;0.83;;;24.30;99.90;;;;;;4872004;29;20203;-91
2022/06/17 02:11:00;;;;;;;1.00;0.90;;;24.70;99.90;;;;;;4871910;29;20235;-96
2022/06/17 06:16:13;;;;;;;2.90;2.20;;;14.60;99.90;;;;;;5770653;24;21238;-96
2022/06/17 07:07:15;;;;;;;3.13;1.93;;;14.10;99.90;;;;;;5147311;22;25221754;-96
2022/06/17 07:12:22;;;;;;;6.00;1.80;;;14.10;99.90;;;;;;6197329;22;20215;-93
2022/06/17 07:14:54;;;;;;;2.93;1.90;;;14.00;99.90;;;;;;6227404;23;20226;-94
2022/06/17 07:17:25;;;;;;;3.40;1.90;;;14.00;99.90;;;;;;6240102;23;20176;-96
2022/06/17 07:19:58;;;;;;;1.83;1.40;;;14.00;99.90;;;;;;6241901;23;20237;-96
2022/06/17 07:22:31;;;;;;;2.23;1.70;;;13.90;99.90;;;;;;6247371;23;20207;-96
2022/06/17 07:25:10;;;;;;;2.90;1.90;;;13.90;99.90;;;;;;6248572;23;20170;-96
2022/06/17 07:33:29;;;;;;;2.30;1.70;;;13.80;99.90;;;;;;6239893;23;20230;-96
2022/06/17 07:36:07;;;;;;;4.23;1.80;;;13.80;99.90;;;;;;6241459;23;20267;-96
2022/06/17 07:42:12;;;;;;;3.67;1.60;;;13.80;99.90;;;;;;6242533;23;20192;-97
2022/06/17 07:44:46;;;;;;;1.70;1.60;;;13.70;99.90;;;;;;6238132;23;20254;-96
2022/06/17 07:47:31;;;;;;;3.30;1.63;;;13.70;99.90;;;;;;6202877;23;20176;-96
2022/06/17 07:50:03;;;;;;;2.43;1.70;;;13.70;99.90;;;;;;6231480;23;20187;-96
2022/06/17 07:52:35;;;;;;;2.30;1.63;;;13.60;99.90;;;;;;6231095;23;20207;-96
2022/06/17 07:55:10;;;;;;;2.80;1.90;;;13.60;99.90;;;;;;6231629;23;20200;-96
2022/06/17 07:57:54;;;;;;;2.20;1.57;;;13.60;99.90;;;;;;6224599;23;20234;-96
2022/06/17 08:00:32;;;;;;;2.60;1.70;;;13.60;99.90;;;;;;6224471;23;20168;-96
2022/06/17 08:03:05;;;;;;;2.13;1.60;;;13.60;99.90;;;;;;6222635;23;20176;-96
2022/06/17 08:05:40;;;;;;;2.07;1.63;;;13.60;99.90;;;;;;6222758;23;20677;-96
2022/06/17 08:08:21;;;;;;;1.87;1.67;;;13.60;99.90;;;;;;6223038;23;20515;-96
2022/06/17 08:10:54;;;;;;;2.67;1.70;;;13.60;99.90;;;;;;6226846;23;20180;-96
2022/06/17 08:13:29;;;;;;;3.53;1.60;;;13.60;99.90;;;;;;6229525;23;20239;-96
2022/06/17 08:16:05;;;;;;;2.87;1.80;;;13.60;99.90;;;;;;6232659;23;20618;-96
2022/06/17 08:21:27;;;;;;;1.93;1.50;;;13.50;99.90;;;;;;6231405;23;20234;-96
2022/06/17 08:24:40;;;;;;;2.70;1.80;;;13.60;99.90;;;;;;6222015;23;20164;-96
2022/06/17 08:27:21;;;;;;;1.90;1.60;;;13.60;99.90;;;;;;6243461;23;20164;-96
2022/06/17 08:32:50;;;;;;;3.33;1.83;;;13.50;99.90;;;;;;6248948;22;20186;-96
2022/06/17 08:35:25;;;;;;;2.23;1.50;;;13.60;99.90;;;;;;6120367;22;20207;-96
2022/06/17 08:38:00;;;;;;;2.10;1.70;;;13.50;99.90;;;;;;6119466;22;20163;-95
2022/06/17 08:40:40;;;;;;;2.10;1.90;;;13.40;99.90;;;;;;6119857;22;20213;-96
2022/06/17 08:43:29;;;;;;;2.40;1.90;;;13.40;99.90;;;;;;6119832;22;20187;-96
2022/06/17 08:46:35;;;;;;;2.20;1.40;;;13.30;99.90;;;;;;6117471;22;20193;-96
2022/06/17 08:49:34;;;;;;;2.20;1.80;;;13.40;99.90;;;;;;6087831;23;20202;-96
2022/06/17 08:52:19;;;;;;;3.13;1.70;;;13.30;99.90;;;;;;6109536;23;20187;-96
2022/06/17 08:58:19;;;;;;;3.20;1.80;;;13.20;99.90;;;;;;6113276;23;20179;-96
2022/06/17 09:01:00;;;;;;;1.70;1.50;;;13.10;99.90;;;;;;6113407;23;20563;-96
2022/06/17 09:03:45;;;;;;;4.20;1.57;;;13.20;99.90;;;;;;6114045;23;20175;-96
2022/06/17 09:06:44;;;;;;;1.63;1.53;;;13.10;99.90;;;;;;6114830;23;20179;-96
2022/06/17 09:13:25;;;;;;;3.00;1.73;;;13.10;99.90;;;;;;6115035;23;20183;-96
2022/06/17 09:16:06;;;;;;;2.10;1.63;;;13.00;99.90;;;;;;6090926;23;20199;-96
2022/06/17 09:18:42;;;;;;;2.67;1.70;;;12.90;99.90;;;;;;6091139;23;20250;-96
2022/06/17 09:21:18;;;;;;;3.57;1.60;;;12.90;99.90;;;;;;6113637;23;20182;-96
2022/06/17 09:23:56;;;;;;;2.63;1.80;;;12.80;99.90;;;;;;6115340;23;20181;-96
2022/06/17 09:26:30;;;;;;;2.47;1.60;;;12.80;99.90;;;;;;6116927;23;20206;-96
2022/06/17 09:29:12;;;;;;;1.90;1.47;;;12.80;99.90;;;;;;6093819;23;20166;-96
2022/06/17 09:34:55;;;;;;;1.83;1.60;;;12.80;99.90;;;;;;6170424;23;20246;-96
2022/06/17 09:37:46;;;;;;;1.57;1.40;;;12.70;99.90;;;;;;6268972;23;20176;-96
2022/06/17 09:45:50;;;;;;;2.87;1.47;;;12.70;99.90;;;;;;6160883;22;20241;-96
2022/06/17 09:48:31;;;;;;;3.07;1.37;;;12.60;99.90;;;;;;6115229;22;20175;-96
2022/06/17 09:51:15;;;;;;;2.37;1.30;;;12.60;99.90;;;;;;6115101;23;20225;-96
2022/06/17 09:53:53;;;;;;;2.37;1.60;;;12.60;99.90;;;;;;6085726;23;20179;-96
2022/06/17 09:56:31;;;;;;;2.57;1.60;;;12.50;99.90;;;;;;6111509;23;20198;-96
2022/06/17 09:59:12;;;;;;;3.20;1.40;;;12.50;99.90;;;;;;6110880;22;20170;-96
2022/06/17 10:01:48;;;;;;;3.40;2.10;;;12.50;99.90;;;;;;6110260;23;20183;-96
2022/06/17 10:04:21;;;;;;;2.20;1.60;;;12.50;99.90;;;;;;6090429;23;20179;-96
2022/06/17 10:10:18;;;;;;;2.17;1.50;;;12.50;99.90;;;;;;6107604;23;20187;-96
2022/06/17 10:20:10;;;;;;;2.40;1.60;;;12.40;99.90;;;;;;6115984;23;20629;-96
2022/06/17 10:22:57;;;;;;;5.43;1.93;;;12.30;99.90;;;;;;6111950;23;20179;-96
2022/06/17 10:25:41;;;;;;;3.67;1.90;;;12.40;99.90;;;;;;6110470;23;20195;-96
2022/06/17 10:28:34;;;;;;;3.70;2.00;;;12.30;99.90;;;;;;6117335;23;20183;-96
2022/06/17 10:31:15;;;;;;;4.10;1.90;;;12.30;99.90;;;;;;6118379;22;20171;-96
2022/06/17 10:33:48;;;;;;;3.53;1.53;;;12.40;99.90;;;;;;6118451;22;20175;-96
2022/06/17 10:39:28;;;;;;;2.60;1.63;;;12.30;99.90;;;;;;6113732;23;20175;-96
2022/06/17 10:42:02;;;;;;;2.77;2.07;;;12.40;99.90;;;;;;6111912;23;20159;-96
2022/06/17 10:44:36;;;;;;;3.10;1.73;;;12.40;99.90;;;;;;6112502;23;20205;-96
2022/06/17 10:47:24;;;;;;;3.97;1.87;;;12.50;99.90;;;;;;6220879;23;20187;-96
2022/06/17 10:50:00;;;;;;;3.03;2.10;;;12.60;99.90;;;;;;6233480;22;20183;-96
2022/06/17 10:52:39;;;;;;;2.97;1.87;;;12.60;99.90;;;;;;6233920;23;20194;-96
2022/06/17 10:55:21;;;;;;;4.77;1.77;;;12.70;99.90;;;;;;6232307;23;20199;-96
2022/06/17 10:58:16;;;;;;;2.97;2.10;;;12.60;99.90;;;;;;6233989;22;20173;-96
2022/06/17 11:00:59;;;;;;;4.77;2.43;;;12.70;99.90;;;;;;6231590;23;20203;-96
2022/06/17 11:03:35;;;;;;;3.27;2.10;;;12.70;99.90;;;;;;6231028;23;20685;-95
2022/06/17 11:06:17;;;;;;;3.77;1.97;;;12.70;99.90;;;;;;6232180;23;20255;-96
2022/06/17 11:08:58;;;;;;;2.73;2.00;;;12.70;99.90;;;;;;6233089;23;20211;-96
2022/06/17 11:14:42;;;;;;;4.00;2.10;;;12.70;99.90;;;;;;6240131;22;20204;-96
2022/06/17 11:17:21;;;;;;;3.67;2.13;;;12.70;99.90;;;;;;6241314;22;20164;-96
2022/06/17 11:19:58;;;;;;;3.80;2.60;;;12.60;99.90;;;;;;6238256;23;20584;-96
2022/06/17 11:22:35;;;;;;;2.87;2.03;;;12.60;99.90;;;;;;6234598;23;20164;-96
2022/06/17 11:25:22;;;;;;;7.90;2.80;;;12.50;99.90;;;;;;6236337;23;20463;-96
2022/06/17 11:28:00;;;;;;;6.33;2.20;;;12.50;99.90;;;;;;6235901;22;20172;-96
2022/06/17 11:30:37;;;;;;;3.83;2.40;;;12.40;99.90;;;;;;6235110;23;20180;-96
2022/06/17 11:33:24;;;;;;;4.97;2.37;;;12.40;99.90;;;;;;6234456;23;20180;-96
2022/06/17 11:36:04;;;;;;;3.83;2.20;;;12.40;99.90;;;;;;6237475;23;20208;-96
2022/06/17 11:38:37;;;;;;;4.47;2.70;;;12.50;99.90;;;;;;6240007;23;20199;-96
2022/06/17 11:41:28;;;;;;;5.40;3.17;;;12.50;99.90;;;;;;6237803;23;20188;-96
2022/06/17 11:44:30;;;;;;;5.03;3.17;;;12.50;99.90;;;;;;6233526;23;20176;-96
2022/06/17 11:47:07;;;;;;;5.83;3.40;;;12.50;99.90;;;;;;6131093;23;20190;-96
2022/06/17 11:49:41;;;;;;;4.47;3.50;;;12.50;99.90;;;;;;6114615;23;20179;-96
2022/06/17 11:52:33;;;;;;;5.87;3.53;;;12.60;99.90;;;;;;6114677;22;20224;-96
2022/06/17 11:55:07;;;;;;;4.77;3.30;;;12.50;99.90;;;;;;6090917;23;20206;-96
2022/06/17 11:57:44;;;;;;;6.30;3.27;;;12.60;99.90;;;;;;6089725;23;20180;-96
2022/06/17 12:00:32;;;;;;;6.80;3.60;;;12.50;99.90;;;;;;6115957;23;20198;-96
2022/06/17 12:06:51;;;;;;;6.93;3.53;;;12.60;99.90;;;;;;6118174;22;20230;-96
2022/06/17 12:09:32;;;;;;;4.60;3.83;;;12.60;99.90;;;;;;6118631;22;20252;-96
2022/06/17 12:12:13;;;;;;;7.53;3.97;;;12.60;99.90;;;;;;6118491;22;20179;-96
2022/06/17 12:14:53;;;;;;;7.97;4.03;;;12.50;99.90;;;;;;6118269;22;20188;-96
2022/06/17 12:17:31;;;;;;;10.37;4.63;;;12.60;99.90;;;;;;6118294;22;20160;-96
2022/06/17 12:23:06;;;;;;;5.47;4.23;;;12.50;99.90;;;;;;6118889;22;20171;-96
2022/06/17 12:25:56;;;;;;;7.50;4.97;;;12.50;99.90;;;;;;6117801;22;20190;-96
2022/06/17 12:28:43;;;;;;;6.77;4.40;;;12.60;99.90;;;;;;6094879;23;20288;-96
2022/06/17 12:34:49;;;;;;;6.50;4.43;;;12.60;99.90;;;;;;6109170;22;20261;-96
2022/06/17 12:37:33;;;;;;;5.40;4.40;;;12.60;99.90;;;;;;6106499;23;20183;-96
2022/06/17 12:42:49;;;;;;;7.03;4.43;;;12.70;99.90;;;;;;6234282;22;20196;-96
2022/06/17 12:45:28;;;;;;;7.23;5.00;;;12.70;99.90;;;;;;6235711;23;20199;-96
2022/06/17 12:54:42;;;;;;;6.73;4.90;;;12.80;99.90;;;;;;6176785;23;20180;-96
2022/06/17 13:16:08;;;;;;;8.73;6.03;;;12.80;99.90;;;;;;6064615;22;20214;-96
2022/06/17 13:21:39;;;;;;;9.57;6.13;;;12.80;99.90;;;;;;6081152;23;20167;-96
2022/06/17 13:24:22;;;;;;;10.73;6.40;;;12.80;99.90;;;;;;6087946;23;20168;-96
2022/06/17 13:29:57;;;;;;;8.43;5.83;;;12.80;99.90;;;;;;6082626;23;20179;-96
2022/06/17 13:44:30;;;;;;;6.73;5.67;;;12.80;99.90;;;;;;6072898;23;20183;-96
2022/06/17 13:47:11;;;;;;;7.80;5.80;;;12.90;99.90;;;;;;6072269;22;20238;-96
2022/06/17 13:49:55;;;;;;;7.67;5.87;;;12.90;99.90;;;;;;6082911;23;20214;-96
2022/06/17 13:52:38;;;;;;;8.80;5.37;;;12.90;99.90;;;;;;6089330;23;20227;-95
2022/06/17 13:55:27;;;;;;;10.33;6.87;;;12.90;99.90;;;;;;6089989;23;20223;-96
2022/06/17 13:58:08;;;;;;;5.90;5.17;;;12.90;99.90;;;;;;6066702;23;20168;-96
2022/06/17 14:00:45;;;;;;;13.50;5.47;;;12.90;99.90;;;;;;6090071;23;20167;-96
2022/06/17 14:04:09;;;;;;;10.47;6.33;;;13.00;99.90;;;;;;6089831;23;20184;-96
2022/06/17 14:12:03;;;;;;;10.30;6.73;;;13.00;99.90;;;;;;6208052;23;20180;-96
2022/06/17 14:14:46;;;;;;;10.93;7.40;;;13.00;99.90;;;;;;6211718;23;20168;-96
2022/06/17 14:17:25;;;;;;;8.30;6.47;;;13.00;99.90;;;;;;6186826;23;20188;-96
2022/06/17 14:52:55;;;;;;;12.00;7.83;;;12.90;99.90;;;;;;5951195;24;20201;-96
2022/06/17 14:55:32;;;;;;;10.43;8.00;;;13.00;99.90;;;;;;5945944;24;20176;-96
2022/06/17 14:58:17;;;;;;;9.57;7.57;;;13.00;99.90;;;;;;5866115;24;20235;-96
2022/06/17 15:16:55;;;;;;;10.87;7.17;;;13.10;99.90;;;;;;6085326;23;20217;-96
2022/06/17 15:19:34;;;;;;;7.97;6.07;;;13.10;99.90;;;;;;6086373;23;20517;-96
2022/06/17 15:22:17;;;;;;;8.33;6.60;;;13.10;99.90;;;;;;6079797;23;20183;-96
2022/06/17 15:25:20;;;;;;;10.63;6.73;;;13.10;99.90;;;;;;6059693;23;20196;-96
2022/06/17 15:39:06;;;;;;;9.63;5.47;;;13.30;99.90;;;;;;6084237;22;20245;-96
2022/06/17 15:41:44;;;;;;;8.57;6.27;;;13.40;99.90;;;;;;6061373;23;20168;-96
2022/06/17 15:44:22;;;;;;;7.80;5.70;;;13.50;99.90;;;;;;6084946;23;20187;-96
2022/06/17 15:47:12;;;;;;;9.37;6.37;;;13.60;99.90;;;;;;6062639;23;20194;-96
2022/06/17 15:50:03;;;;;;;8.70;6.17;;;13.60;99.90;;;;;;6084980;23;20164;-96
2022/06/17 15:52:41;;;;;;;8.90;5.90;;;13.70;99.90;;;;;;6088770;23;20192;-96
2022/06/17 16:14:31;;;;;;;7.80;6.23;;;13.30;99.90;;;;;;6115186;22;20201;-95
2022/06/17 16:25:05;;;;;;;8.90;5.87;;;13.20;99.90;;;;;;6172663;22;20197;-95
2022/06/17 16:27:39;;;;;;;9.97;6.10;;;13.20;99.90;;;;;;6303716;22;20205;-96
2022/06/17 16:30:25;;;;;;;6.80;5.03;;;13.20;99.90;;;;;;6300915;22;20173;-96
2022/06/17 16:36:34;;;;;;;7.53;5.00;;;13.30;99.90;;;;;;6226970;22;20218;-96
2022/06/17 16:48:19;;;;;;;6.10;5.50;;;13.10;99.90;;;;;;6277199;22;20210;-96
2022/06/17 16:50:52;;;;;;;6.53;5.30;;;13.00;99.90;;;;;;6297026;22;20178;-96
2022/06/17 16:53:28;;;;;;;9.47;5.50;;;13.00;99.90;;;;;;6295716;22;20175;-96
2022/06/17 16:56:02;;;;;;;7.43;5.23;;;13.10;99.90;;;;;;6294996;22;20232;-96
2022/06/17 16:58:35;;;;;;;8.97;5.73;;;13.10;99.90;;;;;;6296853;22;20163;-96
2022/06/17 17:01:07;;;;;;;8.77;5.70;;;13.10;99.90;;;;;;6285718;22;20175;-96
2022/06/17 17:03:42;;;;;;;6.70;5.93;;;13.10;99.90;;;;;;6242890;22;20175;-96
2022/06/17 17:06:18;;;;;;;8.80;6.17;;;13.10;99.90;;;;;;6289741;22;20178;-96
2022/06/17 17:08:50;;;;;;;9.50;6.73;;;13.00;99.90;;;;;;6258949;22;20590;-96
2022/06/17 17:11:23;;;;;;;13.13;6.23;;;13.00;99.90;;;;;;6266766;22;20186;-96
2022/06/17 17:16:36;;;;;;;10.40;5.93;;;13.10;99.90;;;;;;6134198;22;20210;-96
2022/06/17 17:19:10;;;;;;;8.20;6.57;;;13.00;99.90;;;;;;6295543;22;20164;-96
2022/06/17 17:21:46;;;;;;;10.37;7.03;;;13.00;99.90;;;;;;6270905;22;20229;-96
2022/06/17 17:24:23;;;;;;;8.37;6.87;;;13.00;99.90;;;;;;6273811;22;20167;-96
2022/06/17 17:27:00;;;;;;;10.17;6.57;;;13.00;99.90;;;;;;6300160;22;20230;-96
2022/06/17 17:29:37;;;;;;;9.60;6.77;;;13.10;99.90;;;;;;6301441;22;20208;-96
2022/06/17 17:32:12;;;;;;;8.37;6.67;;;13.20;99.90;;;;;;6299590;22;20193;-96
2022/06/17 17:34:47;;;;;;;11.07;6.97;;;13.10;99.90;;;;;;6303498;22;20182;-96
2022/06/17 17:37:21;;;;;;;10.17;6.63;;;13.10;99.90;;;;;;6294743;22;20206;-96
2022/06/17 17:40:08;;;;;;;9.07;5.87;;;13.20;99.90;;;;;;6287694;22;20202;-96
2022/06/17 17:42:40;;;;;;;8.73;6.33;;;13.20;99.90;;;;;;6292686;22;20166;-96
2022/06/17 17:47:48;;;;;;;9.60;6.50;;;13.20;99.90;;;;;;6276221;22;20243;-96
2022/06/17 17:50:28;;;;;;;8.30;6.37;;;13.20;99.90;;;;;;6276927;22;20155;-96
2022/06/17 17:53:00;;;;;;;8.10;5.77;;;13.40;99.90;;;;;;6302660;22;20205;-96
2022/06/17 17:55:38;;;;;;;12.57;5.90;;;13.30;99.90;;;;;;6276590;22;20159;-96
2022/06/17 17:58:12;;;;;;;8.87;5.90;;;13.30;99.90;;;;;;6297211;22;20207;-96
2022/06/17 18:38:28;;;;;;;6.57;5.70;;;14.00;99.90;;;;;;6143637;22;20221;-96
2022/06/17 18:41:00;;;;;;;9.33;5.30;;;14.00;99.90;;;;;;6115418;23;20174;-96
2022/06/17 18:43:30;;;;;;;7.43;5.50;;;13.90;99.90;;;;;;6144684;22;20178;-96
2022/06/17 18:46:03;;;;;;;6.50;5.57;;;14.00;99.90;;;;;;6138466;22;20208;-96
2022/06/17 18:48:35;;;;;;;7.73;5.07;;;14.20;99.90;;;;;;6133346;23;20190;-96
2022/06/17 18:51:14;;;;;;;9.67;5.80;;;14.40;99.90;;;;;;6128751;23;20186;-96
2022/06/17 18:53:48;;;;;;;7.80;4.90;;;14.40;99.90;;;;;;6113336;22;20183;-96
2022/06/17 18:56:20;;;;;;;5.53;4.83;;;14.40;99.90;;;;;;6133412;23;20236;-95
2022/06/17 18:58:51;;;;;;;5.37;4.87;;;14.40;99.90;;;;;;6134980;22;20190;-96
2022/06/17 19:01:23;;;;;;;10.97;5.63;;;14.40;99.90;;;;;;6129473;23;20179;-96
2022/06/17 19:06:38;;;;;;;5.97;4.93;;;14.60;99.90;;;;;;6225683;23;20215;-95
2022/06/17 19:17:39;;;;;;;4.93;4.50;;;14.70;99.90;;;;;;6220201;23;20220;-94
2022/06/17 19:20:19;;;;;;;4.90;4.50;;;14.70;99.90;;;;;;6219283;23;20184;-95
2022/06/17 19:22:54;;;;;;;6.73;5.00;;;14.60;99.90;;;;;;6219898;23;20176;-95
2022/06/17 19:25:29;;;;;;;7.47;5.20;;;14.30;99.90;;;;;;6194503;23;20192;-96
2022/06/17 19:28:00;;;;;;;6.60;5.50;;;14.20;99.90;;;;;;6220335;23;20622;-95
2022/06/17 19:30:32;;;;;;;6.47;5.77;;;14.00;99.90;;;;;;6219253;23;20561;-95
2022/06/17 19:33:05;;;;;;;8.57;5.43;;;14.00;99.90;;;;;;6219446;23;20177;-96
2022/06/17 19:35:47;;;;;;;7.60;5.83;;;14.00;99.90;;;;;;6220410;23;20165;-96
2022/06/17 19:38:22;;;;;;;5.90;5.23;;;14.10;99.90;;;;;;6220307;23;20623;-95
2022/06/17 19:41:42;;;;;;;6.43;5.83;;;14.30;99.90;;;;;;6218763;23;20180;-96
2022/06/17 19:43:47;;;;;;;5.93;5.00;;;14.30;99.90;;;;;;6220790;23;20207;-95
2022/06/17 19:48:50;;;;;;;5.67;5.00;;;14.50;99.90;;;;;;6070333;23;20219;-96
2022/06/17 19:51:26;;;;;;;5.90;5.23;;;14.70;99.90;;;;;;6165188;23;20179;-96
2022/06/17 19:53:58;;;;;;;5.17;4.67;;;14.80;99.90;;;;;;6070512;23;20180;-96
2022/06/17 19:56:34;;;;;;;6.70;4.70;;;15.00;99.90;;;;;;6071876;23;20180;-96
2022/06/17 19:59:08;;;;;;;6.87;5.30;;;15.10;99.90;;;;;;6080180;23;20669;-96
2022/06/17 20:01:42;;;;;;;6.30;4.70;;;15.20;99.90;;;;;;6083803;23;20155;-96
2022/06/17 20:04:21;;;;;;;5.20;4.70;;;15.10;99.90;;;;;;6088364;23;20160;-96
2022/06/17 20:06:54;;;;;;;7.13;4.90;;;15.20;99.90;;;;;;6087439;23;20204;-95
2022/06/17 20:09:26;;;;;;;5.90;4.87;;;15.20;99.90;;;;;;6086221;23;20173;-95
2022/06/17 20:12:02;;;;;;;5.57;4.27;;;15.20;99.90;;;;;;6183583;23;20175;-95
2022/06/17 20:14:37;;;;;;;5.03;4.33;;;15.30;99.90;;;;;;6086469;23;20232;-95
2022/06/17 20:17:14;;;;;;;5.40;4.10;;;15.40;99.90;;;;;;6089215;23;20156;-95
2022/06/17 20:19:47;;;;;;;24.23;11.63;;;15.50;99.90;;;;;;6083745;23;20270;-96
2022/06/17 20:22:20;;;;;;;6.07;4.30;;;15.50;99.90;;;;;;6084262;23;20215;-96
2022/06/17 20:24:54;;;;;;;5.50;3.97;;;15.60;99.90;;;;;;6079812;23;20175;-95
2022/06/17 20:27:29;;;;;;;9.43;5.87;;;15.50;99.90;;;;;;6074716;23;20176;-95
2022/06/17 20:30:02;;;;;;;5.47;4.27;;;15.50;99.90;;;;;;6165807;23;20179;-94
2022/06/17 20:32:34;;;;;;;5.23;4.23;;;15.40;99.90;;;;;;6072383;23;20180;-94
2022/06/17 20:35:07;;;;;;;11.33;6.93;;;15.30;99.90;;;;;;6068521;23;20270;-94
2022/06/17 20:37:42;;;;;;;10.10;6.73;;;15.30;99.90;;;;;;6073921;23;20483;-95
2022/06/17 20:40:21;;;;;;;4.13;3.63;;;15.20;99.90;;;;;;6079507;23;20210;-95
2022/06/17 20:42:55;;;;;;;5.37;4.20;;;15.20;99.90;;;;;;6079084;23;20266;-93
2022/06/17 20:51:15;;;;;;;5.60;3.97;;;15.50;99.90;;;;;;6067942;23;20182;-94
2022/06/17 20:53:48;;;;;;;5.17;4.07;;;15.50;99.90;;;;;;6170276;23;20235;-95
2022/06/17 20:56:24;;;;;;;4.53;3.73;;;15.60;99.90;;;;;;6074122;23;20172;-95
2022/06/17 20:58:56;;;;;;;6.20;4.43;;;15.60;99.90;;;;;;6167727;23;20205;-96
2022/06/17 21:01:28;;;;;;;8.37;4.20;;;15.70;99.90;;;;;;6068759;23;20623;-96
2022/06/17 21:04:01;;;;;;;4.57;3.93;;;15.80;99.90;;;;;;6069323;23;20688;-96
2022/06/17 21:06:34;;;;;;;4.37;3.80;;;15.60;99.90;;;;;;6089128;23;20198;-96
2022/06/17 21:09:16;;;;;;;5.43;4.00;;;15.70;99.90;;;;;;6089912;23;20191;-95
2022/06/17 21:11:47;;;;;;;7.47;4.10;;;15.50;99.90;;;;;;6086625;23;20212;-96
2022/06/17 21:14:22;;;;;;;6.27;4.10;;;15.50;99.90;;;;;;6161739;23;20160;-96
2022/06/17 21:16:53;;;;;;;7.80;4.57;;;15.40;99.90;;;;;;6088306;23;20168;-96
2022/06/17 21:22:01;;;;;;;5.33;4.40;;;14.90;99.90;;;;;;6117733;22;20266;-96
2022/06/17 21:24:33;;;;;;;6.37;4.93;;;14.70;99.90;;;;;;6117711;22;20165;-95
2022/06/17 21:27:05;;;;;;;6.43;4.70;;;14.70;99.90;;;;;;6115053;23;20183;-96
2022/06/17 21:29:38;;;;;;;6.60;4.53;;;14.70;99.90;;;;;;6112995;23;20175;-96
2022/06/17 21:32:11;;;;;;;6.23;4.80;;;14.80;99.90;;;;;;6100303;23;20171;-96
2022/06/17 21:34:43;;;;;;;6.10;5.00;;;14.70;99.90;;;;;;6098335;23;20551;-96
2022/06/17 21:37:17;;;;;;;7.60;5.57;;;14.60;99.90;;;;;;6099432;23;20500;-96
2022/06/17 21:39:49;;;;;;;5.93;5.40;;;14.50;99.90;;;;;;6099783;23;20198;-95
2022/06/17 21:42:20;;;;;;;5.13;4.63;;;14.50;99.90;;;;;;6103966;23;20187;-94
2022/06/17 21:44:55;;;;;;;7.60;5.10;;;14.50;99.90;;;;;;6087911;23;20175;-96
2022/06/17 21:47:27;;;;;;;7.77;4.90;;;14.50;99.90;;;;;;6103185;23;20197;-96
2022/06/17 21:50:02;;;;;;;6.97;5.03;;;14.60;99.90;;;;;;6108938;23;20174;-96
2022/06/17 21:52:34;;;;;;;7.77;5.50;;;14.60;99.90;;;;;;6111472;23;20194;-96
2022/06/17 21:55:08;;;;;;;8.30;5.57;;;14.40;99.90;;;;;;6107799;23;20175;-96
2022/06/17 21:57:41;;;;;;;10.03;5.77;;;14.50;99.90;;;;;;6107377;23;20179;-96
2022/06/17 22:00:30;;;;;;;12.03;5.33;;;14.50;99.90;;;;;;6110680;23;20211;-96
2022/06/17 22:03:01;;;;;;;14.03;6.60;;;14.60;99.90;;;;;;6097151;23;20590;-96
2022/06/17 22:05:33;;;;;;;7.47;5.47;;;14.70;99.90;;;;;;6096964;23;20613;-95
2022/06/17 22:08:09;;;;;;;7.80;5.30;;;14.70;99.90;;;;;;6096404;23;20189;-96
2022/06/17 22:10:44;;;;;;;12.33;6.33;;;14.70;99.90;;;;;;6095971;23;20241;-96
2022/06/17 22:13:15;;;;;;;8.03;6.17;;;14.70;99.90;;;;;;6098367;23;20186;-96
2022/06/17 22:18:25;;;;;;;10.80;6.47;;;14.60;99.90;;;;;;6125373;22;20214;-96
2022/06/17 22:20:57;;;;;;;9.00;6.70;;;14.40;99.90;;;;;;6127640;22;20231;-94
2022/06/17 22:23:34;;;;;;;10.87;7.40;;;14.10;99.90;;;;;;6127101;23;20178;-95
2022/06/17 22:26:05;;;;;;;7.97;6.50;;;14.10;99.90;;;;;;6126739;23;20174;-96
2022/06/17 22:28:36;;;;;;;9.27;7.33;;;13.90;99.90;;;;;;6126478;23;20178;-95
2022/06/17 22:31:17;;;;;;;8.73;7.40;;;14.00;99.90;;;;;;6125877;23;20225;-94
2022/06/17 22:33:51;;;;;;;8.03;7.23;;;13.90;99.90;;;;;;6100661;23;20225;-96
2022/06/17 22:36:24;;;;;;;11.13;7.67;;;13.80;99.90;;;;;;6127071;23;20173;-94
2022/06/17 22:38:55;;;;;;;10.37;8.00;;;13.80;99.90;;;;;;6132975;23;20213;-95
2022/06/17 22:41:26;;;;;;;10.57;9.33;;;13.80;99.90;;;;;;6125387;23;20209;-96
2022/06/17 22:43:57;;;;;;;10.77;9.10;;;13.80;99.90;;;;;;6125930;23;20194;-95
2022/06/17 22:46:29;;;;;;;11.03;9.30;;;13.70;99.90;;;;;;6126528;23;20186;-96
2022/06/17 22:49:03;;;;;;;12.20;8.60;;;13.70;99.90;;;;;;6125321;23;20331;-96
2022/06/17 22:51:36;;;;;;;10.63;8.67;;;13.80;99.90;;;;;;6125671;23;20221;-95
2022/06/17 22:54:08;;;;;;;11.70;9.60;;;13.90;99.90;;;;;;6126236;23;20205;-95
2022/06/17 22:56:39;;;;;;;11.87;9.67;;;13.80;99.90;;;;;;6127722;23;20240;-95
2022/06/17 22:59:16;;;;;;;10.13;8.97;;;14.00;99.90;;;;;;6111883;23;20206;-95
2022/06/17 23:01:48;;;;;;;10.73;9.10;;;13.90;99.90;;;;;;6145125;22;20187;-96
2022/06/17 23:10:19;;;;;;;9.40;7.87;;;14.10;99.90;;;;;;6055849;22;20211;-96
2022/06/17 23:34:22;;;;;;;7.20;6.37;;;14.10;99.90;;;;;;6086309;22;20214;-95
2022/06/17 23:36:53;;;;;;;8.70;7.00;;;14.10;99.90;;;;;;6142742;23;20192;-95
